Terminal Aerodrome Forecast
Issued by NWS

Home | Current Version | Previous Version | Text Only | Print | Product List | Glossary On
Versions: 1 2 3 4 5 6 7 8 9 10 11 12 13 14 15 16 17 18 19 20 21 22 23 24 25 26 27 28 29
000
FTUS43 KMKX 240520
TAFUES
TAF
KUES 240520Z 2406/2506 19010G15KT P6SM BKN120 WS020/20050KT
     FM241500 21005KT P6SM BKN090
     FM241800 22007KT P6SM VCSH BKN120
     FM242300 02004KT P6SM VCSH OVC030
     FM250000 04006KT 2SM -SHRA OVC015
     FM250300 04006KT 1 1/2SM -SHRA OVC003=

USA.gov is the U.S. government's official web portal to all federal, state and local government web resources and services.